createdAt,value
2023-01-13T00:01:44.734Z,3.84
2023-01-13T00:04:13.529Z,3.83
2023-01-13T00:06:43.147Z,3.82
2023-01-13T00:09:12.121Z,3.81
2023-01-13T00:11:41.173Z,3.79
2023-01-13T00:14:09.796Z,3.79
2023-01-13T00:16:39.111Z,3.79
2023-01-13T00:19:08.002Z,3.79
2023-01-13T00:21:37.606Z,3.79
2023-01-13T00:24:07.354Z,3.78
2023-01-13T00:26:36.519Z,3.77
2023-01-13T00:29:05.922Z,3.75
2023-01-13T00:31:34.742Z,3.72
2023-01-13T00:34:03.795Z,3.70
2023-01-13T00:36:33.612Z,3.67
2023-01-13T00:39:04.077Z,3.65
2023-01-13T00:41:53.913Z,3.62
2023-01-13T00:44:23.411Z,3.61
2023-01-13T00:46:53.383Z,3.59
2023-01-13T00:49:23.356Z,3.60
2023-01-13T00:51:52.359Z,3.61
2023-01-13T00:54:22.174Z,3.62
2023-01-13T00:56:52.184Z,3.62
2023-01-13T00:59:22.504Z,3.62
2023-01-13T01:01:51.888Z,3.62
2023-01-13T01:04:21.828Z,3.60
2023-01-13T01:06:51.114Z,3.59
2023-01-13T01:09:20.510Z,3.60
2023-01-13T01:11:50.820Z,3.60
2023-01-13T01:14:20.746Z,3.57
2023-01-13T01:16:49.880Z,3.55
2023-01-13T01:19:20.899Z,3.57
2023-01-13T01:21:51.336Z,3.58
2023-01-13T01:24:21.138Z,3.57
2023-01-13T01:26:50.333Z,3.57
2023-01-13T01:29:19.886Z,3.58
2023-01-13T01:31:50.437Z,3.58
2023-01-13T01:34:20.713Z,3.56
2023-01-13T01:36:50.306Z,3.57
2023-01-13T01:39:19.683Z,3.57
2023-01-13T01:42:08.459Z,3.57
2023-01-13T01:44:44.092Z,3.59
2023-01-13T01:47:18.937Z,3.62
2023-01-13T01:49:49.597Z,3.63
2023-01-13T01:52:27.648Z,3.64
2023-01-13T01:55:11.515Z,3.67
2023-01-13T01:57:51.738Z,3.68
2023-01-13T02:00:23.714Z,3.69
2023-01-13T02:02:54.001Z,3.69
2023-01-13T02:05:25.166Z,3.69
2023-01-13T02:07:58.100Z,3.70
2023-01-13T02:10:31.101Z,3.67
2023-01-13T02:13:04.480Z,3.64
2023-01-13T02:15:44.936Z,3.62
2023-01-13T02:18:17.612Z,3.61
2023-01-13T02:20:53.791Z,3.60
2023-01-13T02:24:15.892Z,3.61
2023-01-13T02:27:00.352Z,3.62
2023-01-13T02:30:08.377Z,3.61
2023-01-13T02:33:08.193Z,3.58
2023-01-13T02:35:40.856Z,3.54
2023-01-13T02:38:14.301Z,3.52
2023-01-13T02:40:57.679Z,3.50
2023-01-13T02:43:56.061Z,3.49
2023-01-13T02:46:33.868Z,3.47
2023-01-13T02:49:08.438Z,3.48
2023-01-13T02:51:41.906Z,3.49
2023-01-13T02:54:19.177Z,3.49
2023-01-13T02:56:54.709Z,3.50
2023-01-13T02:59:27.305Z,3.51
2023-01-13T03:01:58.423Z,3.52
2023-01-13T03:04:51.340Z,3.51
2023-01-13T03:07:48.026Z,3.51
2023-01-13T03:10:18.076Z,3.51
2023-01-13T03:12:48.602Z,3.52
2023-01-13T03:15:45.333Z,3.53
2023-01-13T03:18:26.938Z,3.51
2023-01-13T03:21:14.327Z,3.50
2023-01-13T03:23:47.677Z,3.52
2023-01-13T03:26:38.331Z,3.54
2023-01-13T03:29:29.036Z,3.56
2023-01-13T03:32:07.643Z,3.53
2023-01-13T03:34:51.179Z,3.54
2023-01-13T03:37:26.149Z,3.53
2023-01-13T03:40:03.519Z,3.54
2023-01-13T03:42:37.375Z,3.54
2023-01-13T03:45:18.847Z,3.55
2023-01-13T03:47:58.429Z,3.57
2023-01-13T03:50:43.074Z,3.57
2023-01-13T03:53:18.548Z,3.58
2023-01-13T03:56:02.783Z,3.57
2023-01-13T03:58:41.916Z,3.58
2023-01-13T04:01:17.504Z,3.60
2023-01-13T04:04:03.895Z,3.61
2023-01-13T04:06:42.494Z,3.59
2023-01-13T04:09:31.657Z,3.59
2023-01-13T04:12:25.731Z,3.59
2023-01-13T04:14:56.562Z,3.59
2023-01-13T04:17:25.947Z,3.60
2023-01-13T04:19:55.465Z,3.61
2023-01-13T04:22:25.890Z,3.62
2023-01-13T04:24:55.090Z,3.64
2023-01-13T04:27:24.695Z,3.63
2023-01-13T04:29:54.444Z,3.64
2023-01-13T04:32:24.289Z,3.66
2023-01-13T04:34:54.248Z,3.67
2023-01-13T04:37:23.586Z,3.66
2023-01-13T04:39:53.688Z,3.64
2023-01-13T04:42:22.664Z,3.62
2023-01-13T04:44:51.846Z,3.62
2023-01-13T04:47:21.152Z,3.63
2023-01-13T04:49:51.035Z,3.62
2023-01-13T04:52:20.781Z,3.63
2023-01-13T04:54:49.461Z,3.64
2023-01-13T04:57:18.558Z,3.62
2023-01-13T04:59:47.751Z,3.60
2023-01-13T05:02:20.362Z,3.57
2023-01-13T05:04:49.671Z,3.56
2023-01-13T05:07:18.804Z,3.58
2023-01-13T05:09:47.712Z,3.56
2023-01-13T05:12:35.763Z,3.53
2023-01-13T05:15:23.887Z,3.53
2023-01-13T05:17:53.293Z,3.53
2023-01-13T05:20:22.605Z,3.53
2023-01-13T05:23:10.841Z,3.52
2023-01-13T05:25:44.287Z,3.48
2023-01-13T05:28:14.661Z,3.47
2023-01-13T05:30:46.564Z,3.47
2023-01-13T05:33:18.376Z,3.44
2023-01-13T05:35:48.406Z,3.43
2023-01-13T05:38:18.385Z,3.43
2023-01-13T05:41:05.831Z,3.43
2023-01-13T05:43:35.295Z,3.44
2023-01-13T05:46:08.329Z,3.42
2023-01-13T05:48:39.850Z,3.41
2023-01-13T05:51:11.672Z,3.41
2023-01-13T05:53:41.188Z,3.41
2023-01-13T05:56:11.364Z,3.41
2023-01-13T05:58:39.954Z,3.39
2023-01-13T06:01:09.780Z,3.37
2023-01-13T06:03:39.258Z,3.39
2023-01-13T06:06:09.280Z,3.39
2023-01-13T06:08:39.912Z,3.39
2023-01-13T06:11:08.850Z,3.40
2023-01-13T06:13:39.128Z,3.41
2023-01-13T06:16:07.850Z,3.41
2023-01-13T06:18:36.695Z,3.41
2023-01-13T06:21:05.793Z,3.42
2023-01-13T06:23:38.868Z,3.43
2023-01-13T06:26:18.685Z,3.45
2023-01-13T06:28:47.416Z,3.45
2023-01-13T06:31:16.967Z,3.47
2023-01-13T06:33:51.235Z,3.47
2023-01-13T06:36:25.659Z,3.48
2023-01-13T06:38:59.355Z,3.49
2023-01-13T06:41:49.955Z,3.49
2023-01-13T06:44:20.924Z,3.51
2023-01-13T06:46:49.946Z,3.52
2023-01-13T06:49:21.416Z,3.52
2023-01-13T06:51:50.952Z,3.51
2023-01-13T06:54:19.424Z,3.51
2023-01-13T06:56:48.111Z,3.52
2023-01-13T06:59:17.312Z,3.53
2023-01-13T07:01:46.084Z,3.54
2023-01-13T07:04:14.987Z,3.55
2023-01-13T07:06:44.087Z,3.59
2023-01-13T07:09:13.126Z,3.62
2023-01-13T07:11:53.244Z,3.65
2023-01-13T07:14:43.014Z,3.66
2023-01-13T07:17:11.698Z,3.73
2023-01-13T07:19:40.480Z,3.78
2023-01-13T07:22:09.176Z,3.79
2023-01-13T07:24:39.083Z,3.79
2023-01-13T07:27:07.769Z,3.78
2023-01-13T07:29:38.105Z,3.78
2023-01-13T07:32:08.145Z,3.80
2023-01-13T07:34:36.858Z,3.79
2023-01-13T07:37:05.695Z,3.77
2023-01-13T07:39:34.574Z,3.77
2023-01-13T07:42:21.694Z,3.79
2023-01-13T07:44:50.479Z,3.80
2023-01-13T07:47:23.467Z,3.80
2023-01-13T07:49:52.975Z,3.81
2023-01-13T07:52:21.759Z,3.82
2023-01-13T07:54:50.753Z,3.85
2023-01-13T07:57:19.444Z,3.86
2023-01-13T07:59:48.532Z,3.89
2023-01-13T08:02:19.548Z,3.91
2023-01-13T08:04:48.359Z,3.91
2023-01-13T08:07:16.944Z,3.94
2023-01-13T08:09:46.586Z,3.95
2023-01-13T08:12:33.772Z,3.98
2023-01-13T08:15:04.938Z,4.02
2023-01-13T08:17:33.704Z,4.09
2023-01-13T08:20:03.629Z,4.16
2023-01-13T08:22:33.734Z,4.22
2023-01-13T08:25:02.626Z,4.30
2023-01-13T08:27:31.207Z,4.37
2023-01-13T08:30:00.315Z,4.50
2023-01-13T08:32:29.195Z,4.60
2023-01-13T08:34:57.910Z,4.68
2023-01-13T08:37:26.782Z,4.72
2023-01-13T08:39:55.673Z,4.75
2023-01-13T08:42:27.280Z,4.80
2023-01-13T08:44:58.260Z,4.86
2023-01-13T08:47:29.813Z,4.92
2023-01-13T08:49:58.591Z,4.96
2023-01-13T08:52:27.173Z,4.98
2023-01-13T08:54:56.581Z,5.03
2023-01-13T08:57:25.435Z,5.09
2023-01-13T08:59:54.052Z,5.12
2023-01-13T09:02:24.299Z,5.15
2023-01-13T09:04:53.267Z,5.20
2023-01-13T09:07:22.050Z,5.21
2023-01-13T09:09:51.763Z,5.20
2023-01-13T09:12:38.780Z,5.25
2023-01-13T09:15:14.735Z,5.32
2023-01-13T09:17:43.320Z,5.35
2023-01-13T09:20:13.338Z,5.35
2023-01-13T09:22:42.677Z,5.35
2023-01-13T09:25:12.904Z,5.33
2023-01-13T09:27:41.337Z,5.32
2023-01-13T09:30:10.977Z,5.34
2023-01-13T09:32:39.950Z,5.30
2023-01-13T09:35:09.505Z,5.26
2023-01-13T09:37:41.718Z,5.21
2023-01-13T09:40:17.570Z,5.16
2023-01-13T09:43:16.764Z,5.13
2023-01-13T09:46:01.151Z,5.11
2023-01-13T09:48:52.349Z,5.15
2023-01-13T09:51:31.069Z,5.17
2023-01-13T09:54:11.820Z,5.21
2023-01-13T09:56:40.417Z,5.24
2023-01-13T09:59:15.169Z,5.24
2023-01-13T10:01:53.038Z,5.25
2023-01-13T10:04:21.852Z,5.29
2023-01-13T10:06:56.518Z,5.33
2023-01-13T10:09:47.969Z,5.37
2023-01-13T10:12:44.195Z,5.45
2023-01-13T10:15:23.459Z,5.53
2023-01-13T10:17:58.872Z,5.55
2023-01-13T10:20:52.874Z,5.53
2023-01-13T10:23:27.477Z,5.41
2023-01-13T10:26:01.909Z,5.38
2023-01-13T10:28:30.792Z,5.35
2023-01-13T10:30:59.987Z,5.32
2023-01-13T10:33:28.978Z,5.30
2023-01-13T10:36:01.980Z,5.30
2023-01-13T10:38:38.129Z,5.28
2023-01-13T10:41:20.426Z,5.25
2023-01-13T10:43:54.439Z,5.26
2023-01-13T10:46:23.471Z,5.29
2023-01-13T10:49:24.284Z,5.32
2023-01-13T10:51:53.120Z,5.36
2023-01-13T10:54:24.197Z,5.46
2023-01-13T10:57:20.541Z,5.55
2023-01-13T10:59:49.752Z,5.63
2023-01-13T11:02:26.750Z,5.72
2023-01-13T11:04:55.772Z,5.78
2023-01-13T11:07:38.439Z,5.83
2023-01-13T11:10:17.109Z,5.85
2023-01-13T11:13:04.670Z,5.89
2023-01-13T11:16:08.005Z,5.95
2023-01-13T11:19:02.735Z,5.96
2023-01-13T11:22:07.816Z,5.96
2023-01-13T11:24:50.773Z,5.97
2023-01-13T11:27:42.931Z,5.93
2023-01-13T11:30:17.591Z,5.89
2023-01-13T11:33:10.840Z,5.88
2023-01-13T11:36:05.329Z,5.89
2023-01-13T11:38:43.028Z,5.88
2023-01-13T11:41:46.224Z,5.87
2023-01-13T11:44:27.882Z,5.96
2023-01-13T11:46:56.875Z,6.01
2023-01-13T11:49:31.084Z,6.07
2023-01-13T11:52:43.044Z,6.13
2023-01-13T11:55:49.699Z,6.25
2023-01-13T11:58:38.782Z,6.32
2023-01-13T12:01:45.179Z,6.34
2023-01-13T12:04:25.794Z,6.40
2023-01-13T12:07:23.356Z,6.47
2023-01-13T12:10:15.282Z,6.48
2023-01-13T12:13:03.935Z,6.52
2023-01-13T12:16:01.301Z,6.50
2023-01-13T12:18:34.799Z,6.49
2023-01-13T12:21:04.199Z,6.49
2023-01-13T12:23:44.916Z,6.48
2023-01-13T12:26:18.955Z,6.38
2023-01-13T12:28:50.473Z,6.35
2023-01-13T12:31:20.986Z,6.32
2023-01-13T12:34:22.109Z,6.29
2023-01-13T12:37:08.911Z,6.29
2023-01-13T12:39:43.541Z,6.37
2023-01-13T12:43:06.597Z,6.45
2023-01-13T12:45:35.438Z,6.55
2023-01-13T12:48:06.370Z,6.59
2023-01-13T12:50:41.152Z,6.66
2023-01-13T12:53:34.745Z,6.73
2023-01-13T12:56:24.910Z,6.83
2023-01-13T12:59:13.570Z,6.97
2023-01-13T13:01:43.121Z,7.17
2023-01-13T13:04:20.180Z,7.36
2023-01-13T13:07:14.449Z,7.49
2023-01-13T13:09:54.806Z,7.66
2023-01-13T13:13:09.460Z,7.90
2023-01-13T13:15:39.167Z,8.99
2023-01-13T13:18:24.234Z,9.57
2023-01-13T13:21:18.940Z,10.20
2023-01-13T13:23:53.677Z,10.85
2023-01-13T13:26:38.419Z,10.86
2023-01-13T13:29:51.760Z,11.28
2023-01-13T13:33:15.341Z,12.09
2023-01-13T13:36:04.292Z,12.47
2023-01-13T13:39:12.089Z,12.17
2023-01-13T13:42:06.071Z,11.44
2023-01-13T13:45:04.861Z,11.65
2023-01-13T13:47:38.773Z,11.94
2023-01-13T13:50:20.385Z,11.44
2023-01-13T13:52:59.701Z,10.91
2023-01-13T13:55:30.227Z,10.32
2023-01-13T13:57:59.730Z,9.97
2023-01-13T14:00:35.178Z,9.57
2023-01-13T14:03:07.448Z,9.24
2023-01-13T14:05:37.781Z,8.87
2023-01-13T14:08:17.270Z,8.33
2023-01-13T14:10:46.837Z,8.00
2023-01-13T14:13:32.254Z,7.63
2023-01-13T14:16:02.829Z,7.25
2023-01-13T14:18:45.383Z,6.99
2023-01-13T14:21:19.695Z,6.72
2023-01-13T14:23:54.686Z,6.50
2023-01-13T14:26:28.891Z,6.31
2023-01-13T14:28:59.934Z,6.10
2023-01-13T14:31:29.720Z,5.90
2023-01-13T14:34:03.185Z,5.72
2023-01-13T14:36:51.931Z,5.49
2023-01-13T14:39:27.374Z,5.34
2023-01-13T14:41:56.369Z,5.17
2023-01-13T14:44:29.562Z,4.99
2023-01-13T14:47:02.019Z,4.83
2023-01-13T14:49:59.289Z,4.67
2023-01-13T14:52:30.532Z,4.51
2023-01-13T14:55:10.787Z,4.33
2023-01-13T14:57:41.818Z,4.17
2023-01-13T15:00:16.988Z,4.05
2023-01-13T15:02:48.049Z,3.94
2023-01-13T15:05:19.675Z,3.80
2023-01-13T15:08:14.244Z,3.68
2023-01-13T15:11:00.218Z,3.54
2023-01-13T15:13:44.795Z,3.40
2023-01-13T15:16:25.913Z,3.28
2023-01-13T15:18:56.324Z,3.17
2023-01-13T15:21:25.600Z,3.06
2023-01-13T15:23:54.084Z,2.97
2023-01-13T15:26:28.942Z,2.88
2023-01-13T15:28:59.337Z,2.82
2023-01-13T15:31:28.664Z,2.75
2023-01-13T15:34:00.595Z,2.70
2023-01-13T15:36:31.375Z,2.66
2023-01-13T15:39:01.556Z,2.61
2023-01-13T15:41:49.076Z,2.56
2023-01-13T15:44:36.601Z,2.51
2023-01-13T15:47:08.255Z,2.48
2023-01-13T15:49:43.499Z,2.46
2023-01-13T15:52:18.226Z,2.45
2023-01-13T15:54:46.817Z,2.47
2023-01-13T15:57:36.277Z,2.46
2023-01-13T16:00:16.914Z,2.47
2023-01-13T16:02:45.655Z,2.49
2023-01-13T16:05:14.536Z,2.51
2023-01-13T16:07:43.314Z,2.52
2023-01-13T16:10:22.140Z,2.52
2023-01-13T16:12:50.723Z,2.51
2023-01-13T16:15:23.192Z,2.51
2023-01-13T16:17:57.634Z,2.53
2023-01-13T16:20:27.345Z,2.53
2023-01-13T16:22:55.819Z,2.54
2023-01-13T16:25:27.290Z,2.55
2023-01-13T16:27:55.871Z,2.58
2023-01-13T16:30:26.291Z,2.59
2023-01-13T16:32:55.497Z,2.61
2023-01-13T16:35:25.059Z,2.64
2023-01-13T16:37:54.312Z,2.65
2023-01-13T16:40:31.220Z,2.67
2023-01-13T16:43:03.378Z,2.68
2023-01-13T16:45:32.654Z,2.70
2023-01-13T16:48:01.581Z,2.71
2023-01-13T16:50:41.129Z,2.73
2023-01-13T16:53:10.826Z,2.74
2023-01-13T16:55:40.738Z,2.74
2023-01-13T16:58:18.233Z,2.74
2023-01-13T17:00:48.125Z,2.74
2023-01-13T17:03:17.093Z,2.73
2023-01-13T17:05:50.122Z,2.73
2023-01-13T17:08:19.328Z,2.72
2023-01-13T17:10:48.318Z,2.73
2023-01-13T17:13:17.471Z,2.72
2023-01-13T17:15:46.403Z,2.72
2023-01-13T17:18:15.016Z,2.71
2023-01-13T17:20:43.786Z,2.68
2023-01-13T17:23:12.258Z,2.65
2023-01-13T17:25:41.149Z,2.63
2023-01-13T17:28:09.626Z,2.60
2023-01-13T17:30:38.316Z,2.56
2023-01-13T17:33:06.896Z,2.52
2023-01-13T17:35:35.685Z,2.47
2023-01-13T17:38:04.180Z,2.43
2023-01-13T17:40:34.794Z,2.37
2023-01-13T17:43:03.500Z,2.29
2023-01-13T17:45:31.980Z,2.23
2023-01-13T17:48:00.651Z,2.17
2023-01-13T17:50:30.980Z,2.13
2023-01-13T17:52:59.452Z,2.07
2023-01-13T17:55:27.928Z,2.00
2023-01-13T17:57:56.514Z,1.96
2023-01-13T18:00:25.709Z,1.91
2023-01-13T18:02:54.843Z,1.88
2023-01-13T18:05:23.484Z,1.89
2023-01-13T18:07:52.273Z,1.85
2023-01-13T18:10:20.754Z,1.79
2023-01-13T18:12:49.236Z,1.73
2023-01-13T18:15:17.919Z,1.66
2023-01-13T18:17:47.334Z,1.60
2023-01-13T18:20:35.982Z,1.54
2023-01-13T18:23:23.299Z,1.51
2023-01-13T18:26:10.625Z,1.48
2023-01-13T18:28:39.203Z,1.47
2023-01-13T18:31:09.572Z,1.50
2023-01-13T18:33:38.125Z,1.56
2023-01-13T18:36:08.348Z,1.59
2023-01-13T18:38:37.015Z,1.72
2023-01-13T18:41:25.975Z,1.81
2023-01-13T18:43:54.763Z,1.85
2023-01-13T18:46:23.664Z,1.85
2023-01-13T18:48:52.339Z,1.83
2023-01-13T18:51:21.021Z,1.80
2023-01-13T18:53:51.510Z,1.76
2023-01-13T18:56:20.445Z,1.73
2023-01-13T18:58:53.536Z,1.70
2023-01-13T19:01:27.850Z,1.66
2023-01-13T19:04:03.053Z,1.61
2023-01-13T19:06:33.768Z,1.62
2023-01-13T19:09:08.752Z,1.67
2023-01-13T19:11:37.446Z,1.64
2023-01-13T19:14:05.921Z,1.65
2023-01-13T19:16:34.911Z,1.67
2023-01-13T19:19:03.623Z,1.61
2023-01-13T19:21:32.186Z,1.48
2023-01-13T19:24:00.664Z,1.35
2023-01-13T19:26:29.245Z,1.24
2023-01-13T19:28:57.728Z,1.15
2023-01-13T19:31:26.327Z,1.06
2023-01-13T19:33:55.037Z,0.90
2023-01-13T19:36:23.581Z,0.76
2023-01-13T19:38:52.162Z,0.66
2023-01-13T19:41:39.382Z,0.57
2023-01-13T19:44:30.287Z,0.51
2023-01-13T19:46:58.975Z,0.45
2023-01-13T19:49:27.664Z,0.41
2023-01-13T19:51:56.248Z,0.37
2023-01-13T19:54:24.836Z,0.33
2023-01-13T19:56:53.636Z,0.29
2023-01-13T19:59:29.295Z,0.25
2023-01-13T20:01:58.754Z,0.22
2023-01-13T20:04:38.620Z,0.17
2023-01-13T20:07:08.329Z,0.13
2023-01-13T20:09:36.823Z,0.06
2023-01-13T20:12:24.129Z,-0.01
2023-01-13T20:14:53.225Z,-0.06
2023-01-13T20:17:22.734Z,-0.11
2023-01-13T20:19:51.414Z,-0.17
2023-01-13T20:22:19.997Z,-0.21
2023-01-13T20:24:52.471Z,-0.26
2023-01-13T20:27:23.976Z,-0.32
2023-01-13T20:29:52.506Z,-0.38
2023-01-13T20:32:21.395Z,-0.45
2023-01-13T20:34:50.388Z,-0.50
2023-01-13T20:37:20.821Z,-0.57
2023-01-13T20:39:49.623Z,-0.63
2023-01-13T20:42:30.386Z,-0.70
2023-01-13T20:45:00.710Z,-0.78
2023-01-13T20:47:30.406Z,-0.85
2023-01-13T20:49:59.607Z,-0.90
2023-01-13T20:52:28.802Z,-0.96
2023-01-13T20:54:57.288Z,-0.99
2023-01-13T20:57:25.974Z,-1.01
2023-01-13T20:59:54.553Z,-1.02
2023-01-13T21:02:24.669Z,-1.03
2023-01-13T21:04:53.258Z,-1.03
2023-01-13T21:07:22.173Z,-1.05
2023-01-13T21:09:50.729Z,-1.05
2023-01-13T21:12:37.945Z,-1.07
2023-01-13T21:15:17.484Z,-1.10
2023-01-13T21:18:06.547Z,-1.10
2023-01-13T21:20:37.285Z,-1.10
2023-01-13T21:23:06.397Z,-1.11
2023-01-13T21:25:37.415Z,-1.13
2023-01-13T21:28:06.632Z,-1.14
2023-01-13T21:30:35.716Z,-1.14
2023-01-13T21:33:06.544Z,-1.15
2023-01-13T21:35:39.038Z,-1.18
2023-01-13T21:38:07.601Z,-1.22
2023-01-13T21:40:36.296Z,-1.24
2023-01-13T21:43:23.409Z,-1.25
2023-01-13T21:46:10.895Z,-1.26
2023-01-13T21:48:39.624Z,-1.28
2023-01-13T21:51:08.209Z,-1.32
2023-01-13T21:53:36.790Z,-1.36
2023-01-13T21:56:06.089Z,-1.38
2023-01-13T21:58:34.677Z,-1.39
2023-01-13T22:01:04.165Z,-1.37
2023-01-13T22:03:51.497Z,-1.36
2023-01-13T22:06:20.158Z,-1.38
2023-01-13T22:08:48.973Z,-1.36
2023-01-13T22:11:17.860Z,-1.33
2023-01-13T22:14:05.295Z,-1.33
2023-01-13T22:16:49.296Z,-1.30
2023-01-13T22:19:19.045Z,-1.30
2023-01-13T22:21:49.270Z,-1.30
2023-01-13T22:24:18.050Z,-1.29
2023-01-13T22:26:46.635Z,-1.27
2023-01-13T22:29:15.690Z,-1.23
2023-01-13T22:31:44.352Z,-1.19
2023-01-13T22:34:13.308Z,-1.15
2023-01-13T22:36:41.783Z,-1.14
2023-01-13T22:39:10.377Z,-1.13
2023-01-13T22:41:39.261Z,-1.13
2023-01-13T22:44:07.951Z,-1.13
2023-01-13T22:46:36.638Z,-1.11
2023-01-13T22:49:05.628Z,-1.08
2023-01-13T22:51:34.317Z,-1.09
2023-01-13T22:54:03.432Z,-1.09
2023-01-13T22:56:32.607Z,-1.10
2023-01-13T22:59:03.753Z,-1.11
2023-01-13T23:01:34.800Z,-1.12
2023-01-13T23:04:04.487Z,-1.11
2023-01-13T23:06:34.526Z,-1.11
2023-01-13T23:09:03.307Z,-1.11
2023-01-13T23:11:32.498Z,-1.11
2023-01-13T23:14:06.808Z,-1.11
2023-01-13T23:16:38.609Z,-1.10
2023-01-13T23:19:08.713Z,-1.10
2023-01-13T23:21:38.867Z,-1.08
2023-01-13T23:24:08.313Z,-1.07
2023-01-13T23:26:37.797Z,-1.05
2023-01-13T23:29:13.404Z,-1.04
2023-01-13T23:31:42.372Z,-1.03
2023-01-13T23:34:11.457Z,-1.04
2023-01-13T23:36:42.187Z,-1.04
2023-01-13T23:39:10.917Z,-1.04
2023-01-13T23:41:39.871Z,-1.04
2023-01-13T23:44:09.694Z,-1.03
2023-01-13T23:46:38.580Z,-1.02
2023-01-13T23:49:07.886Z,-1.03
2023-01-13T23:51:36.871Z,-1.01
2023-01-13T23:54:05.967Z,-0.99
2023-01-13T23:56:39.614Z,-0.97
2023-01-13T23:59:09.280Z,-0.96
